createdAt,value
2019-02-17T00:01:48.859Z,99298.72
2019-02-17T00:04:35.980Z,99294.70
2019-02-17T00:07:23.307Z,99292.64
2019-02-17T00:10:10.825Z,99294.53
2019-02-17T00:12:58.453Z,99296.56
2019-02-17T00:15:45.772Z,99299.18
2019-02-17T00:18:33.402Z,99304.05
2019-02-17T00:21:20.929Z,99309.66
2019-02-17T00:24:08.772Z,99307.46
2019-02-17T00:26:56.408Z,99303.52
2019-02-17T00:29:44.021Z,99298.45
2019-02-17T00:32:31.750Z,99304.16
2019-02-17T00:35:18.973Z,99303.32
2019-02-17T00:38:06.701Z,99304.52
2019-02-17T00:40:54.536Z,99304.20
2019-02-17T00:43:42.339Z,99304.31
2019-02-17T00:46:30.000Z,99304.94
2019-02-17T00:49:17.702Z,99304.77
2019-02-17T00:52:05.334Z,99303.34
2019-02-17T00:54:52.887Z,99309.63
2019-02-17T00:57:41.211Z,99308.80
2019-02-17T01:00:28.547Z,99307.84
2019-02-17T01:03:16.287Z,99305.48
2019-02-17T01:06:03.499Z,99306.44
2019-02-17T01:08:50.821Z,99302.19
2019-02-17T01:11:38.143Z,99294.61
2019-02-17T01:14:25.683Z,99303.61
2019-02-17T01:17:12.964Z,99305.20
2019-02-17T01:20:00.435Z,99305.71
2019-02-17T01:22:47.840Z,99304.62
2019-02-17T01:25:35.171Z,99305.13
2019-02-17T01:28:22.593Z,99306.44
2019-02-17T01:31:10.118Z,99307.30
2019-02-17T01:33:57.545Z,99305.07
2019-02-17T01:36:45.072Z,99299.41
2019-02-17T01:39:32.689Z,99297.04
2019-02-17T01:42:20.934Z,99297.28
2019-02-17T01:45:09.583Z,99293.15
2019-02-17T01:47:56.610Z,99295.52
2019-02-17T01:50:44.108Z,99297.41
2019-02-17T01:53:31.661Z,99293.05
2019-02-17T01:56:19.091Z,99294.13
2019-02-17T01:59:06.816Z,99291.75
2019-02-17T02:01:54.387Z,99285.94
2019-02-17T02:04:42.075Z,99288.44
2019-02-17T02:07:29.505Z,99285.81
2019-02-17T02:10:17.023Z,99289.74
2019-02-17T02:13:04.142Z,99282.73
2019-02-17T02:15:51.871Z,99281.20
2019-02-17T02:18:39.401Z,99281.67
2019-02-17T02:21:26.585Z,99285.42
2019-02-17T02:24:14.349Z,99278.79
2019-02-17T02:27:01.672Z,99281.28
2019-02-17T02:29:49.403Z,99274.39
2019-02-17T02:32:36.827Z,99274.03
2019-02-17T02:35:24.261Z,99275.23
2019-02-17T02:38:13.559Z,99272.40
2019-02-17T02:41:01.153Z,99275.00
2019-02-17T02:43:48.407Z,99269.77
2019-02-17T02:46:36.202Z,99271.55
2019-02-17T02:49:23.315Z,99272.71
2019-02-17T02:52:10.951Z,99270.47
2019-02-17T02:54:58.474Z,99266.33
2019-02-17T02:57:45.795Z,99259.19
2019-02-17T03:00:33.527Z,99264.50
2019-02-17T03:03:21.255Z,99266.27
2019-02-17T03:06:10.625Z,99268.54
2019-02-17T03:08:57.845Z,99260.25
2019-02-17T03:11:45.270Z,99258.45
2019-02-17T03:14:32.611Z,99257.88
2019-02-17T03:17:20.322Z,99260.79
2019-02-17T03:20:09.638Z,99262.69
2019-02-17T03:22:56.708Z,99260.08
2019-02-17T03:25:45.289Z,99261.84
2019-02-17T03:28:33.292Z,99263.02
2019-02-17T03:31:21.033Z,99267.20
2019-02-17T03:34:08.556Z,99262.55
2019-02-17T03:36:56.182Z,99265.62
2019-02-17T03:39:44.329Z,99261.71
2019-02-17T03:42:31.232Z,99261.70
2019-02-17T03:45:18.764Z,99263.80
2019-02-17T03:48:06.289Z,99264.04
2019-02-17T03:50:53.627Z,99261.09
2019-02-17T03:53:41.134Z,99253.71
2019-02-17T03:56:28.968Z,99253.61
2019-02-17T03:59:16.527Z,99248.90
2019-02-17T04:02:04.280Z,99251.66
2019-02-17T04:04:51.958Z,99251.33
2019-02-17T04:07:39.287Z,99254.03
2019-02-17T04:10:28.571Z,99241.10
2019-02-17T04:13:15.571Z,99247.52
2019-02-17T04:16:02.881Z,99245.13
2019-02-17T04:18:50.203Z,99248.66
2019-02-17T04:21:38.041Z,99242.48
2019-02-17T04:24:25.462Z,99245.59
2019-02-17T04:27:12.785Z,99252.52
2019-02-17T04:30:00.674Z,99247.66
2019-02-17T04:32:48.050Z,99243.98
2019-02-17T04:35:35.470Z,99246.22
2019-02-17T04:38:22.996Z,99251.74
2019-02-17T04:41:10.830Z,99248.90
2019-02-17T04:43:58.252Z,99247.98
2019-02-17T04:46:45.371Z,99248.11
2019-02-17T04:49:33.101Z,99242.30
2019-02-17T04:52:20.731Z,99241.23
2019-02-17T04:55:08.764Z,99241.78
2019-02-17T04:57:56.294Z,99244.48
2019-02-17T05:00:44.341Z,99240.70
2019-02-17T05:03:31.654Z,99235.03
2019-02-17T05:06:18.975Z,99235.97
2019-02-17T05:09:06.807Z,99226.16
2019-02-17T05:11:53.928Z,99230.52
2019-02-17T05:14:41.040Z,99227.18
2019-02-17T05:17:28.885Z,99219.59
2019-02-17T05:20:16.613Z,99225.86
2019-02-17T05:23:04.137Z,99216.61
2019-02-17T05:25:51.802Z,99219.34
2019-02-17T05:28:39.505Z,99224.41
2019-02-17T05:31:27.326Z,99220.02
2019-02-17T05:34:15.163Z,99217.52
2019-02-17T05:37:02.180Z,99217.05
2019-02-17T05:39:49.398Z,99216.13
2019-02-17T05:42:37.235Z,99213.77
2019-02-17T05:45:24.958Z,99212.78
2019-02-17T05:48:12.593Z,99215.06
2019-02-17T05:51:00.318Z,99214.98
2019-02-17T05:53:48.054Z,99217.15
2019-02-17T05:56:35.583Z,99220.24
2019-02-17T05:59:22.670Z,99219.44
2019-02-17T06:02:10.325Z,99215.75
2019-02-17T06:04:57.857Z,99214.30
2019-02-17T06:07:45.181Z,99222.42
2019-02-17T06:10:32.799Z,99217.20
2019-02-17T06:13:20.326Z,99221.29
2019-02-17T06:16:07.753Z,99225.89
2019-02-17T06:18:55.175Z,99220.58
2019-02-17T06:21:43.217Z,99223.20
2019-02-17T06:24:31.155Z,99216.15
2019-02-17T06:27:19.692Z,99219.20
2019-02-17T06:30:09.200Z,99221.80
2019-02-17T06:32:57.007Z,99227.25
2019-02-17T06:35:44.428Z,99229.58
2019-02-17T06:38:31.956Z,99230.84
2019-02-17T06:41:19.380Z,99233.71
2019-02-17T06:44:06.702Z,99231.25
2019-02-17T06:46:55.456Z,99228.46
2019-02-17T06:49:42.677Z,99232.02
2019-02-17T06:52:29.998Z,99237.00
2019-02-17T06:55:28.380Z,99243.22
2019-02-17T06:58:16.109Z,99245.30
2019-02-17T07:01:03.444Z,99242.25
2019-02-17T07:03:51.066Z,99238.52
2019-02-17T07:06:39.874Z,99244.24
2019-02-17T07:09:27.242Z,99247.63
2019-02-17T07:12:14.873Z,99248.70
2019-02-17T07:15:02.193Z,99247.84
2019-02-17T07:17:49.619Z,99248.98
2019-02-17T07:20:37.039Z,99257.03
2019-02-17T07:23:24.876Z,99256.22
2019-02-17T07:26:12.501Z,99251.08
2019-02-17T07:28:59.818Z,99255.16
2019-02-17T07:31:47.351Z,99253.69
2019-02-17T07:34:34.884Z,99249.05
2019-02-17T07:37:32.723Z,99252.78
2019-02-17T07:40:11.466Z,99247.73
2019-02-17T07:42:58.890Z,99253.94
2019-02-17T07:45:46.318Z,99256.03
2019-02-17T07:48:33.737Z,99253.04
2019-02-17T07:51:21.060Z,99252.69
2019-02-17T07:54:08.789Z,99248.03
2019-02-17T07:56:55.922Z,99244.52
2019-02-17T07:59:43.333Z,99236.70
2019-02-17T08:02:30.550Z,99230.42
2019-02-17T08:05:18.602Z,99234.70
2019-02-17T08:08:06.012Z,99235.75
2019-02-17T08:11:03.444Z,99235.28
2019-02-17T08:13:42.806Z,99233.86
2019-02-17T08:16:30.639Z,99227.53
2019-02-17T08:19:18.375Z,99230.13
2019-02-17T08:22:05.836Z,99223.94
2019-02-17T08:24:53.526Z,99228.20
2019-02-17T08:27:41.155Z,99231.34
2019-02-17T08:30:28.578Z,99235.17
2019-02-17T08:33:15.798Z,99231.47
2019-02-17T08:36:03.427Z,99228.76
2019-02-17T08:38:51.057Z,99220.09
2019-02-17T08:41:38.584Z,99218.84
2019-02-17T08:44:26.426Z,99217.55
2019-02-17T08:47:14.251Z,99212.52
2019-02-17T08:50:01.701Z,99220.37
2019-02-17T08:52:49.104Z,99215.84
2019-02-17T08:55:36.841Z,99207.97
2019-02-17T08:58:24.253Z,99216.87
2019-02-17T09:01:11.369Z,99219.26
2019-02-17T09:03:58.617Z,99212.58
2019-02-17T09:06:46.014Z,99209.95
2019-02-17T09:09:33.550Z,99206.34
2019-02-17T09:12:21.479Z,99211.62
2019-02-17T09:15:12.649Z,99205.23
2019-02-17T09:18:00.630Z,99202.87
2019-02-17T09:20:48.005Z,99202.72
2019-02-17T09:23:35.781Z,99199.54
2019-02-17T09:26:23.408Z,99200.70
2019-02-17T09:29:11.556Z,99202.13
2019-02-17T09:31:59.560Z,99204.08
2019-02-17T09:34:47.218Z,99201.18
2019-02-17T09:37:34.643Z,99195.78
2019-02-17T09:40:22.475Z,99196.51
2019-02-17T09:43:09.875Z,99199.18
2019-02-17T09:45:57.529Z,99193.37
2019-02-17T09:48:44.953Z,99187.75
2019-02-17T09:51:32.278Z,99192.77
2019-02-17T09:54:20.021Z,99191.89
2019-02-17T09:57:07.839Z,99192.91
2019-02-17T09:59:55.371Z,99183.28
2019-02-17T10:02:42.790Z,99126.48
2019-02-17T10:05:30.120Z,99182.01
2019-02-17T10:08:17.848Z,99176.32
2019-02-17T10:11:16.441Z,99173.59
2019-02-17T10:14:03.861Z,99167.20
2019-02-17T10:16:51.381Z,99172.48
2019-02-17T10:19:38.668Z,99170.33
2019-02-17T10:22:26.021Z,99168.98
2019-02-17T10:25:13.241Z,99172.75
2019-02-17T10:28:00.874Z,99169.38
2019-02-17T10:30:48.498Z,99164.50
2019-02-17T10:33:36.493Z,99163.24
2019-02-17T10:36:24.169Z,99161.19
2019-02-17T10:39:11.804Z,99159.77
2019-02-17T10:41:59.223Z,99154.59
2019-02-17T10:44:47.097Z,99154.80
2019-02-17T10:47:34.888Z,99154.71
2019-02-17T10:50:22.577Z,99152.84
2019-02-17T10:53:09.949Z,99148.28
2019-02-17T10:55:57.588Z,99146.20
2019-02-17T10:58:45.507Z,99141.64
2019-02-17T11:01:32.622Z,99140.15
2019-02-17T11:04:20.046Z,99130.39
2019-02-17T11:07:07.573Z,99130.86
2019-02-17T11:09:55.822Z,99127.17
2019-02-17T11:12:43.643Z,99124.23
2019-02-17T11:15:30.982Z,99117.33
2019-02-17T11:18:18.599Z,99113.30
2019-02-17T11:21:05.927Z,99118.80
2019-02-17T11:23:53.608Z,99109.09
2019-02-17T11:26:41.588Z,99102.81
2019-02-17T11:29:29.424Z,99099.26
2019-02-17T11:32:16.847Z,99099.98
2019-02-17T11:35:05.521Z,99097.52
2019-02-17T11:37:53.232Z,99089.45
2019-02-17T11:40:41.215Z,99090.20
2019-02-17T11:43:28.604Z,99088.45
2019-02-17T11:46:16.016Z,99081.34
2019-02-17T11:49:03.543Z,99075.49
2019-02-17T11:51:50.766Z,99078.85
2019-02-17T11:54:37.880Z,99070.34
2019-02-17T11:57:25.200Z,99063.33
2019-02-17T12:00:18.268Z,99059.48
2019-02-17T12:03:08.330Z,99058.27
2019-02-17T12:05:55.054Z,99054.20
2019-02-17T12:08:46.879Z,99055.70
2019-02-17T12:11:34.207Z,99049.42
2019-02-17T12:14:21.829Z,99046.59
2019-02-17T12:17:09.767Z,99049.91
2019-02-17T12:19:59.243Z,99043.34
2019-02-17T12:22:48.309Z,99043.14
2019-02-17T12:25:40.949Z,99036.27
2019-02-17T12:28:36.257Z,99034.11
2019-02-17T12:31:25.012Z,99026.52
2019-02-17T12:34:12.435Z,99030.89
2019-02-17T12:37:00.167Z,99028.90
2019-02-17T12:39:47.799Z,99031.75
2019-02-17T12:42:35.434Z,99031.63
2019-02-17T12:45:22.747Z,99026.22
2019-02-17T12:48:10.078Z,99018.64
2019-02-17T12:50:57.287Z,99015.88
2019-02-17T12:53:45.019Z,99015.34
2019-02-17T12:56:32.143Z,99008.81
2019-02-17T12:59:19.670Z,99004.86
2019-02-17T13:02:07.197Z,99008.98
2019-02-17T13:04:54.513Z,99007.95
2019-02-17T13:07:42.900Z,99005.68
2019-02-17T13:10:30.286Z,99008.98
2019-02-17T13:13:17.891Z,99001.03
2019-02-17T13:16:05.640Z,99000.03
2019-02-17T13:18:53.576Z,98995.47
2019-02-17T13:21:41.017Z,98991.62
2019-02-17T13:24:28.425Z,98986.75
2019-02-17T13:27:16.236Z,98985.42
2019-02-17T13:30:05.149Z,98980.84
2019-02-17T13:32:52.436Z,98986.10
2019-02-17T13:35:39.555Z,98978.68
2019-02-17T13:38:27.183Z,98977.98
2019-02-17T13:41:14.828Z,98971.11
2019-02-17T13:44:02.546Z,98967.55
2019-02-17T13:46:49.868Z,98966.89
2019-02-17T13:49:37.420Z,98969.45
2019-02-17T13:52:25.126Z,98965.28
2019-02-17T13:55:13.008Z,98961.72
2019-02-17T13:58:00.592Z,98960.38
2019-02-17T14:00:48.628Z,98955.39
2019-02-17T14:03:36.052Z,98948.41
2019-02-17T14:06:23.682Z,98945.09
2019-02-17T14:09:11.504Z,98951.73
2019-02-17T14:11:59.147Z,98945.98
2019-02-17T14:14:46.462Z,98941.04
2019-02-17T14:17:33.785Z,98940.73
2019-02-17T14:20:21.236Z,98942.54
2019-02-17T14:23:08.738Z,98941.87
2019-02-17T14:25:56.260Z,98940.48
2019-02-17T14:28:43.995Z,98934.92
2019-02-17T14:31:31.623Z,98931.34
2019-02-17T14:34:19.460Z,98924.72
2019-02-17T14:37:06.986Z,98925.02
2019-02-17T14:39:54.615Z,98919.96
2019-02-17T14:42:42.242Z,98916.57
2019-02-17T14:45:29.673Z,98918.05
2019-02-17T14:48:16.989Z,98917.56
2019-02-17T14:51:06.255Z,98919.03
2019-02-17T14:53:54.193Z,98919.29
2019-02-17T14:56:41.925Z,98912.73
2019-02-17T14:59:29.068Z,98908.53
2019-02-17T15:02:16.157Z,98904.32
2019-02-17T15:05:03.614Z,98905.03
2019-02-17T15:07:51.315Z,98902.94
2019-02-17T15:10:38.740Z,98900.83
2019-02-17T15:13:25.974Z,98895.33
2019-02-17T15:16:13.288Z,98895.56
2019-02-17T15:19:00.805Z,98891.72
2019-02-17T15:21:49.464Z,98892.59
2019-02-17T15:24:38.733Z,98893.06
2019-02-17T15:27:26.204Z,98891.86
2019-02-17T15:30:17.793Z,98893.05
2019-02-17T15:33:05.301Z,98889.30
2019-02-17T15:35:52.829Z,98888.28
2019-02-17T15:38:41.074Z,98886.23
2019-02-17T15:41:28.712Z,98882.38
2019-02-17T15:44:16.227Z,98884.72
2019-02-17T15:47:03.651Z,98881.56
2019-02-17T15:49:50.874Z,98877.46
2019-02-17T15:52:38.722Z,98881.45
2019-02-17T15:55:26.334Z,98873.89
2019-02-17T15:58:14.067Z,98873.47
2019-02-17T16:01:01.392Z,98862.90
2019-02-17T16:03:49.127Z,98861.95
2019-02-17T16:06:36.552Z,98869.92
2019-02-17T16:09:25.910Z,98862.55
2019-02-17T16:12:13.336Z,98855.78
2019-02-17T16:15:00.761Z,98858.51
2019-02-17T16:17:48.048Z,98850.11
2019-02-17T16:20:35.713Z,98860.78
2019-02-17T16:23:22.684Z,98860.64
2019-02-17T16:26:10.148Z,98857.55
2019-02-17T16:28:57.783Z,98865.20
2019-02-17T16:31:45.107Z,98867.00
2019-02-17T16:34:38.470Z,98862.16
2019-02-17T16:37:21.508Z,98798.42
2019-02-17T16:40:14.377Z,98861.23
2019-02-17T16:43:01.972Z,98861.23
2019-02-17T16:45:49.493Z,98870.06
2019-02-17T16:48:37.120Z,98864.98
2019-02-17T16:51:24.545Z,98877.16
2019-02-17T16:54:12.277Z,98875.09
2019-02-17T16:56:59.706Z,98878.98
2019-02-17T16:59:47.109Z,98876.36
2019-02-17T17:02:34.787Z,98884.69
2019-02-17T17:05:23.256Z,98880.84
2019-02-17T17:08:10.707Z,98882.86
2019-02-17T17:10:58.372Z,98881.22
2019-02-17T17:13:46.294Z,98880.34
2019-02-17T17:16:33.514Z,98886.52
2019-02-17T17:19:21.143Z,98880.36
2019-02-17T17:22:08.775Z,98883.01
2019-02-17T17:24:56.297Z,98885.08
2019-02-17T17:27:43.517Z,98876.52
2019-02-17T17:30:31.248Z,98880.30
2019-02-17T17:33:18.403Z,98882.60
2019-02-17T17:36:06.096Z,98884.95
2019-02-17T17:38:53.830Z,98885.63
2019-02-17T17:41:41.563Z,98877.59
2019-02-17T17:44:29.200Z,98882.95
2019-02-17T17:47:16.313Z,98882.39
2019-02-17T17:50:04.042Z,98881.91
2019-02-17T17:52:51.051Z,98884.33
2019-02-17T17:55:38.272Z,98890.29
2019-02-17T17:58:25.566Z,98880.59
2019-02-17T18:01:13.062Z,98884.38
2019-02-17T18:04:01.167Z,98882.95
2019-02-17T18:06:48.281Z,98880.92
2019-02-17T18:09:35.805Z,98877.66
2019-02-17T18:12:23.226Z,98878.98
2019-02-17T18:15:17.849Z,98878.98
2019-02-17T18:18:05.361Z,98875.66
2019-02-17T18:20:52.995Z,98875.88
2019-02-17T18:23:40.303Z,98882.13
2019-02-17T18:26:27.734Z,98879.33
2019-02-17T18:29:15.538Z,98883.61
2019-02-17T18:32:02.984Z,98886.78
2019-02-17T18:34:51.533Z,98884.36
2019-02-17T18:37:38.645Z,98886.21
2019-02-17T18:40:26.483Z,98884.12
2019-02-17T18:43:14.211Z,98880.65
2019-02-17T18:46:01.225Z,98881.78
2019-02-17T18:48:49.056Z,98881.34
2019-02-17T18:51:36.588Z,98891.91
2019-02-17T18:54:24.931Z,98891.41
2019-02-17T18:57:11.948Z,98895.53
2019-02-17T18:59:59.986Z,98892.73
2019-02-17T19:02:47.563Z,98894.11
2019-02-17T19:05:34.426Z,98893.92
2019-02-17T19:08:22.155Z,98890.46
2019-02-17T19:11:10.139Z,98892.45
2019-02-17T19:13:59.052Z,98893.07
2019-02-17T19:16:46.094Z,98889.42
2019-02-17T19:19:33.802Z,98888.64
2019-02-17T19:22:21.736Z,98893.09
2019-02-17T19:25:10.241Z,98887.18
2019-02-17T19:27:57.766Z,98888.16
2019-02-17T19:30:44.930Z,98890.31
2019-02-17T19:33:32.353Z,98891.78
2019-02-17T19:36:20.107Z,98889.81
2019-02-17T19:39:07.624Z,98894.11
2019-02-17T19:41:55.238Z,98890.99
2019-02-17T19:44:42.670Z,98893.81
2019-02-17T19:47:30.094Z,98891.85
2019-02-17T19:50:18.047Z,98897.45
2019-02-17T19:53:05.660Z,98895.30
2019-02-17T19:55:53.183Z,98897.45
2019-02-17T19:58:40.297Z,98896.44
2019-02-17T20:01:28.141Z,98903.67
2019-02-17T20:04:25.497Z,98906.64
2019-02-17T20:07:13.733Z,98906.98
2019-02-17T20:10:01.345Z,98905.66
2019-02-17T20:12:48.626Z,98918.83
2019-02-17T20:15:36.004Z,98906.82
2019-02-17T20:18:23.530Z,98910.45
2019-02-17T20:21:10.988Z,98909.31
2019-02-17T20:23:58.491Z,98906.62
2019-02-17T20:26:47.299Z,98910.89
2019-02-17T20:29:34.970Z,98909.09
2019-02-17T20:32:22.292Z,98908.41
2019-02-17T20:35:10.229Z,98913.67
2019-02-17T20:37:57.663Z,98918.63
2019-02-17T20:40:45.383Z,98919.63
2019-02-17T20:43:32.600Z,98927.36
2019-02-17T20:46:20.254Z,98923.88
2019-02-17T20:49:07.765Z,98927.35
2019-02-17T20:51:54.786Z,98926.90
2019-02-17T20:54:42.308Z,98922.12
2019-02-17T20:57:29.623Z,98921.23
2019-02-17T21:00:22.569Z,98917.20
2019-02-17T21:03:09.609Z,98919.31
2019-02-17T21:05:57.098Z,98916.64
2019-02-17T21:08:44.448Z,98911.92
2019-02-17T21:11:31.970Z,98914.67
2019-02-17T21:14:19.291Z,98915.68
2019-02-17T21:17:07.846Z,98913.27
2019-02-17T21:19:55.361Z,98498.08
2019-02-17T21:22:43.195Z,98907.94
2019-02-17T21:25:30.622Z,98903.66
2019-02-17T21:28:17.842Z,98905.45
2019-02-17T21:31:05.058Z,98906.09
2019-02-17T21:33:52.584Z,98909.31
2019-02-17T21:36:39.606Z,98908.62
2019-02-17T21:39:28.252Z,98909.02
2019-02-17T21:42:15.267Z,98904.94
2019-02-17T21:45:02.795Z,98910.82
2019-02-17T21:47:50.327Z,98913.14
2019-02-17T21:50:38.773Z,98912.55
2019-02-17T21:53:26.541Z,98904.92
2019-02-17T21:56:13.960Z,98906.81
2019-02-17T21:59:01.047Z,98910.26
2019-02-17T22:01:48.676Z,98901.99
2019-02-17T22:04:36.408Z,98902.22
2019-02-17T22:07:26.898Z,98904.96
2019-02-17T22:10:23.337Z,98901.03
2019-02-17T22:13:11.067Z,98904.84
2019-02-17T22:16:05.963Z,98905.84
2019-02-17T22:18:53.609Z,98904.75
2019-02-17T22:21:41.357Z,98894.02
2019-02-17T22:24:28.748Z,98907.88
2019-02-17T22:27:16.480Z,98902.22
2019-02-17T22:30:04.008Z,98905.95
2019-02-17T22:32:51.430Z,98906.17
2019-02-17T22:35:39.061Z,98907.77
2019-02-17T22:38:26.179Z,98909.45
2019-02-17T22:41:13.806Z,98905.25
2019-02-17T22:44:01.641Z,98910.08
2019-02-17T22:46:49.369Z,98909.59
2019-02-17T22:49:36.798Z,98907.27
2019-02-17T22:52:24.127Z,98910.00
2019-02-17T22:55:12.260Z,98911.37
2019-02-17T22:57:59.990Z,98914.19
2019-02-17T23:00:59.190Z,98907.81
2019-02-17T23:03:46.624Z,98901.67
2019-02-17T23:06:34.672Z,98901.29
2019-02-17T23:09:22.284Z,98903.14
2019-02-17T23:12:09.845Z,98902.22
2019-02-17T23:14:57.644Z,98904.42
2019-02-17T23:17:45.475Z,98900.50
2019-02-17T23:20:32.899Z,98899.41
2019-02-17T23:23:20.016Z,98901.33
2019-02-17T23:26:07.516Z,98901.00
2019-02-17T23:28:55.072Z,98901.70
2019-02-17T23:31:42.400Z,98903.70
2019-02-17T23:34:29.802Z,98903.86
2019-02-17T23:37:17.582Z,98904.61
2019-02-17T23:40:07.938Z,98907.78
2019-02-17T23:42:55.161Z,98910.59
2019-02-17T23:45:44.579Z,98907.81
2019-02-17T23:48:32.270Z,98911.62
2019-02-17T23:51:19.479Z,98906.66
2019-02-17T23:54:07.712Z,98911.90
2019-02-17T23:56:55.249Z,98915.95
2019-02-17T23:59:48.716Z,98914.99
